sensor_id;sensor_type;location;lat;lon;timestamp;P1;durP1;ratioP1;P2;durP2;ratioP2
54627;SDS011;40525;55.926;21.066;2023-07-29T00:00:55;3.90;;;2.50;;
54627;SDS011;40525;55.926;21.066;2023-07-29T00:03:43;3.30;;;2.60;;
54627;SDS011;40525;55.926;21.066;2023-07-29T00:06:37;3.30;;;2.30;;
54627;SDS011;40525;55.926;21.066;2023-07-29T00:09:17;2.60;;;2.00;;
54627;SDS011;40525;55.926;21.066;2023-07-29T00:11:57;3.50;;;2.50;;
54627;SDS011;40525;55.926;21.066;2023-07-29T00:14:37;2.90;;;2.10;;
54627;SDS011;40525;55.926;21.066;2023-07-29T00:17:17;3.00;;;2.40;;
54627;SDS011;40525;55.926;21.066;2023-07-29T00:19:57;4.00;;;2.30;;
54627;SDS011;40525;55.926;21.066;2023-07-29T00:22:41;2.70;;;1.90;;
54627;SDS011;40525;55.926;21.066;2023-07-29T00:25:21;4.60;;;2.20;;
54627;SDS011;40525;55.926;21.066;2023-07-29T00:28:02;3.70;;;2.30;;
54627;SDS011;40525;55.926;21.066;2023-07-29T00:30:43;4.40;;;2.50;;
54627;SDS011;40525;55.926;21.066;2023-07-29T00:33:24;4.00;;;2.90;;
54627;SDS011;40525;55.926;21.066;2023-07-29T00:38:44;6.20;;;2.80;;
54627;SDS011;40525;55.926;21.066;2023-07-29T00:41:24;4.00;;;2.30;;
54627;SDS011;40525;55.926;21.066;2023-07-29T00:44:05;2.90;;;2.10;;
54627;SDS011;40525;55.926;21.066;2023-07-29T00:46:45;4.10;;;2.60;;
54627;SDS011;40525;55.926;21.066;2023-07-29T00:49:26;4.70;;;3.10;;
54627;SDS011;40525;55.926;21.066;2023-07-29T00:52:06;2.90;;;1.90;;
54627;SDS011;40525;55.926;21.066;2023-07-29T00:54:46;3.70;;;2.40;;
54627;SDS011;40525;55.926;21.066;2023-07-29T00:57:26;4.20;;;2.50;;
54627;SDS011;40525;55.926;21.066;2023-07-29T01:00:10;3.30;;;2.20;;
54627;SDS011;40525;55.926;21.066;2023-07-29T01:02:57;4.70;;;2.30;;
54627;SDS011;40525;55.926;21.066;2023-07-29T01:06:05;3.50;;;1.80;;
54627;SDS011;40525;55.926;21.066;2023-07-29T01:08:51;3.20;;;2.20;;
54627;SDS011;40525;55.926;21.066;2023-07-29T01:11:46;4.70;;;2.30;;
54627;SDS011;40525;55.926;21.066;2023-07-29T01:17:32;2.60;;;2.20;;
54627;SDS011;40525;55.926;21.066;2023-07-29T01:20:11;3.10;;;2.40;;
54627;SDS011;40525;55.926;21.066;2023-07-29T01:23:02;3.80;;;2.30;;
54627;SDS011;40525;55.926;21.066;2023-07-29T01:25:35;5.60;;;2.30;;
54627;SDS011;40525;55.926;21.066;2023-07-29T01:28:22;4.10;;;2.30;;
54627;SDS011;40525;55.926;21.066;2023-07-29T01:31:12;2.90;;;2.30;;
54627;SDS011;40525;55.926;21.066;2023-07-29T01:34:12;4.90;;;2.40;;
54627;SDS011;40525;55.926;21.066;2023-07-29T01:36:51;4.00;;;2.40;;
54627;SDS011;40525;55.926;21.066;2023-07-29T01:39:44;3.60;;;2.10;;
54627;SDS011;40525;55.926;21.066;2023-07-29T01:42:27;3.30;;;2.30;;
54627;SDS011;40525;55.926;21.066;2023-07-29T01:45:09;3.10;;;2.30;;
54627;SDS011;40525;55.926;21.066;2023-07-29T01:47:51;3.20;;;2.70;;
54627;SDS011;40525;55.926;21.066;2023-07-29T01:50:31;3.40;;;2.40;;
54627;SDS011;40525;55.926;21.066;2023-07-29T01:53:12;5.20;;;3.00;;
54627;SDS011;40525;55.926;21.066;2023-07-29T01:55:51;3.20;;;2.40;;
54627;SDS011;40525;55.926;21.066;2023-07-29T01:58:33;4.90;;;2.40;;
54627;SDS011;40525;55.926;21.066;2023-07-29T02:01:12;2.40;;;1.90;;
54627;SDS011;40525;55.926;21.066;2023-07-29T02:03:59;6.80;;;2.70;;
54627;SDS011;40525;55.926;21.066;2023-07-29T02:06:53;3.20;;;2.20;;
54627;SDS011;40525;55.926;21.066;2023-07-29T02:09:28;4.60;;;2.60;;
54627;SDS011;40525;55.926;21.066;2023-07-29T02:12:20;4.50;;;2.40;;
54627;SDS011;40525;55.926;21.066;2023-07-29T02:15:01;3.30;;;2.50;;
54627;SDS011;40525;55.926;21.066;2023-07-29T02:17:42;5.00;;;2.60;;
54627;SDS011;40525;55.926;21.066;2023-07-29T02:20:22;6.20;;;3.30;;
54627;SDS011;40525;55.926;21.066;2023-07-29T02:23:01;6.50;;;3.20;;
54627;SDS011;40525;55.926;21.066;2023-07-29T02:25:42;4.60;;;3.30;;
54627;SDS011;40525;55.926;21.066;2023-07-29T02:28:21;5.20;;;2.70;;
54627;SDS011;40525;55.926;21.066;2023-07-29T02:33:56;4.00;;;2.40;;
54627;SDS011;40525;55.926;21.066;2023-07-29T02:36:37;3.70;;;2.50;;
54627;SDS011;40525;55.926;21.066;2023-07-29T02:39:18;5.00;;;2.50;;
54627;SDS011;40525;55.926;21.066;2023-07-29T02:41:59;3.30;;;2.30;;
54627;SDS011;40525;55.926;21.066;2023-07-29T02:44:39;4.80;;;2.30;;
54627;SDS011;40525;55.926;21.066;2023-07-29T02:47:20;5.70;;;2.80;;
54627;SDS011;40525;55.926;21.066;2023-07-29T02:49:59;2.70;;;2.40;;
54627;SDS011;40525;55.926;21.066;2023-07-29T02:55:23;3.30;;;2.40;;
54627;SDS011;40525;55.926;21.066;2023-07-29T02:58:05;4.40;;;2.10;;
54627;SDS011;40525;55.926;21.066;2023-07-29T03:00:45;5.20;;;2.70;;
54627;SDS011;40525;55.926;21.066;2023-07-29T03:03:34;3.50;;;2.70;;
54627;SDS011;40525;55.926;21.066;2023-07-29T03:06:28;4.50;;;2.30;;
54627;SDS011;40525;55.926;21.066;2023-07-29T03:09:02;3.40;;;2.20;;
54627;SDS011;40525;55.926;21.066;2023-07-29T03:11:49;3.10;;;2.50;;
54627;SDS011;40525;55.926;21.066;2023-07-29T03:14:25;5.00;;;2.30;;
54627;SDS011;40525;55.926;21.066;2023-07-29T03:17:11;4.00;;;2.40;;
54627;SDS011;40525;55.926;21.066;2023-07-29T03:19:52;4.00;;;2.80;;
54627;SDS011;40525;55.926;21.066;2023-07-29T03:22:34;4.40;;;2.20;;
54627;SDS011;40525;55.926;21.066;2023-07-29T03:25:15;5.10;;;2.10;;
54627;SDS011;40525;55.926;21.066;2023-07-29T03:27:56;4.60;;;2.30;;
54627;SDS011;40525;55.926;21.066;2023-07-29T03:30:36;4.60;;;2.40;;
54627;SDS011;40525;55.926;21.066;2023-07-29T03:33:16;3.60;;;2.50;;
54627;SDS011;40525;55.926;21.066;2023-07-29T03:35:56;5.10;;;2.50;;
54627;SDS011;40525;55.926;21.066;2023-07-29T03:38:37;3.30;;;2.10;;
54627;SDS011;40525;55.926;21.066;2023-07-29T03:41:19;3.20;;;2.20;;
54627;SDS011;40525;55.926;21.066;2023-07-29T03:43:59;8.20;;;2.50;;
54627;SDS011;40525;55.926;21.066;2023-07-29T03:46:39;6.20;;;2.80;;
54627;SDS011;40525;55.926;21.066;2023-07-29T03:49:19;8.00;;;3.00;;
54627;SDS011;40525;55.926;21.066;2023-07-29T03:52:00;4.50;;;2.10;;
54627;SDS011;40525;55.926;21.066;2023-07-29T03:54:39;4.00;;;1.80;;
54627;SDS011;40525;55.926;21.066;2023-07-29T03:57:19;3.70;;;1.90;;
54627;SDS011;40525;55.926;21.066;2023-07-29T03:59:59;4.00;;;2.00;;
54627;SDS011;40525;55.926;21.066;2023-07-29T04:02:52;4.90;;;2.40;;
54627;SDS011;40525;55.926;21.066;2023-07-29T04:05:46;3.50;;;1.80;;
54627;SDS011;40525;55.926;21.066;2023-07-29T04:08:20;4.60;;;2.50;;
54627;SDS011;40525;55.926;21.066;2023-07-29T04:11:07;4.80;;;1.80;;
54627;SDS011;40525;55.926;21.066;2023-07-29T04:13:41;3.60;;;1.70;;
54627;SDS011;40525;55.926;21.066;2023-07-29T04:16:29;3.50;;;1.80;;
54627;SDS011;40525;55.926;21.066;2023-07-29T04:19:04;2.70;;;1.60;;
54627;SDS011;40525;55.926;21.066;2023-07-29T04:21:51;2.60;;;1.90;;
54627;SDS011;40525;55.926;21.066;2023-07-29T04:24:32;2.30;;;1.80;;
54627;SDS011;40525;55.926;21.066;2023-07-29T04:27:12;4.90;;;1.90;;
54627;SDS011;40525;55.926;21.066;2023-07-29T04:29:52;3.90;;;1.70;;
54627;SDS011;40525;55.926;21.066;2023-07-29T04:32:32;2.80;;;1.60;;
54627;SDS011;40525;55.926;21.066;2023-07-29T04:35:13;4.40;;;1.90;;
54627;SDS011;40525;55.926;21.066;2023-07-29T04:37:53;4.30;;;1.90;;
54627;SDS011;40525;55.926;21.066;2023-07-29T04:40:34;5.80;;;1.70;;
54627;SDS011;40525;55.926;21.066;2023-07-29T04:43:14;5.00;;;1.60;;
54627;SDS011;40525;55.926;21.066;2023-07-29T04:45:54;3.40;;;1.60;;
54627;SDS011;40525;55.926;21.066;2023-07-29T04:48:34;6.60;;;1.80;;
54627;SDS011;40525;55.926;21.066;2023-07-29T04:51:15;4.80;;;2.20;;
54627;SDS011;40525;55.926;21.066;2023-07-29T04:53:54;2.20;;;1.50;;
54627;SDS011;40525;55.926;21.066;2023-07-29T04:56:34;6.90;;;2.00;;
54627;SDS011;40525;55.926;21.066;2023-07-29T04:59:15;2.90;;;1.60;;
54627;SDS011;40525;55.926;21.066;2023-07-29T05:01:56;3.20;;;1.50;;
54627;SDS011;40525;55.926;21.066;2023-07-29T05:04:37;3.50;;;1.50;;
54627;SDS011;40525;55.926;21.066;2023-07-29T05:07:17;2.50;;;1.80;;
54627;SDS011;40525;55.926;21.066;2023-07-29T05:09:57;2.00;;;1.60;;
54627;SDS011;40525;55.926;21.066;2023-07-29T05:12:37;3.30;;;2.30;;
54627;SDS011;40525;55.926;21.066;2023-07-29T05:15:17;3.60;;;1.60;;
54627;SDS011;40525;55.926;21.066;2023-07-29T05:17:58;2.00;;;1.50;;
54627;SDS011;40525;55.926;21.066;2023-07-29T05:20:38;4.70;;;1.80;;
54627;SDS011;40525;55.926;21.066;2023-07-29T05:23:18;2.70;;;1.70;;
54627;SDS011;40525;55.926;21.066;2023-07-29T05:25:58;3.40;;;1.80;;
54627;SDS011;40525;55.926;21.066;2023-07-29T05:28:38;2.30;;;1.20;;
54627;SDS011;40525;55.926;21.066;2023-07-29T05:31:18;3.50;;;1.70;;
54627;SDS011;40525;55.926;21.066;2023-07-29T05:33:58;2.40;;;1.30;;
54627;SDS011;40525;55.926;21.066;2023-07-29T05:36:40;4.20;;;1.70;;
54627;SDS011;40525;55.926;21.066;2023-07-29T05:39:20;3.30;;;1.20;;
54627;SDS011;40525;55.926;21.066;2023-07-29T05:42:01;4.80;;;1.70;;
54627;SDS011;40525;55.926;21.066;2023-07-29T05:44:44;3.20;;;1.60;;
54627;SDS011;40525;55.926;21.066;2023-07-29T05:47:25;4.20;;;1.70;;
54627;SDS011;40525;55.926;21.066;2023-07-29T05:50:05;3.40;;;1.60;;
54627;SDS011;40525;55.926;21.066;2023-07-29T05:52:46;2.00;;;1.50;;
54627;SDS011;40525;55.926;21.066;2023-07-29T05:55:26;5.90;;;1.60;;
54627;SDS011;40525;55.926;21.066;2023-07-29T05:58:07;3.00;;;1.60;;
54627;SDS011;40525;55.926;21.066;2023-07-29T06:00:47;1.90;;;1.20;;
54627;SDS011;40525;55.926;21.066;2023-07-29T06:03:27;2.80;;;1.50;;
54627;SDS011;40525;55.926;21.066;2023-07-29T06:06:08;2.60;;;1.50;;
54627;SDS011;40525;55.926;21.066;2023-07-29T06:08:48;1.90;;;1.30;;
54627;SDS011;40525;55.926;21.066;2023-07-29T06:11:28;2.70;;;1.40;;
54627;SDS011;40525;55.926;21.066;2023-07-29T06:14:08;3.40;;;1.50;;
54627;SDS011;40525;55.926;21.066;2023-07-29T06:16:48;1.90;;;1.20;;
54627;SDS011;40525;55.926;21.066;2023-07-29T06:19:28;3.30;;;1.60;;
54627;SDS011;40525;55.926;21.066;2023-07-29T06:22:09;2.20;;;1.10;;
54627;SDS011;40525;55.926;21.066;2023-07-29T06:24:52;2.80;;;1.30;;
54627;SDS011;40525;55.926;21.066;2023-07-29T06:27:32;3.60;;;1.60;;
54627;SDS011;40525;55.926;21.066;2023-07-29T06:30:12;2.90;;;1.30;;
54627;SDS011;40525;55.926;21.066;2023-07-29T06:32:52;3.50;;;1.80;;
54627;SDS011;40525;55.926;21.066;2023-07-29T06:35:32;2.60;;;1.40;;
54627;SDS011;40525;55.926;21.066;2023-07-29T06:38:12;4.10;;;1.70;;
54627;SDS011;40525;55.926;21.066;2023-07-29T06:40:55;1.90;;;1.30;;
54627;SDS011;40525;55.926;21.066;2023-07-29T06:43:35;2.10;;;1.30;;
54627;SDS011;40525;55.926;21.066;2023-07-29T06:46:15;3.90;;;1.20;;
54627;SDS011;40525;55.926;21.066;2023-07-29T06:48:55;2.50;;;1.40;;
54627;SDS011;40525;55.926;21.066;2023-07-29T06:51:35;2.70;;;1.30;;
54627;SDS011;40525;55.926;21.066;2023-07-29T06:54:16;2.60;;;1.60;;
54627;SDS011;40525;55.926;21.066;2023-07-29T06:56:56;2.50;;;1.40;;
54627;SDS011;40525;55.926;21.066;2023-07-29T06:59:36;4.00;;;1.40;;
54627;SDS011;40525;55.926;21.066;2023-07-29T07:02:16;2.30;;;1.40;;
54627;SDS011;40525;55.926;21.066;2023-07-29T07:05:03;2.00;;;1.40;;
54627;SDS011;40525;55.926;21.066;2023-07-29T07:07:57;1.90;;;1.30;;
54627;SDS011;40525;55.926;21.066;2023-07-29T07:10:30;3.00;;;1.50;;
54627;SDS011;40525;55.926;21.066;2023-07-29T07:13:17;2.80;;;1.30;;
54627;SDS011;40525;55.926;21.066;2023-07-29T07:15:50;4.10;;;1.50;;
54627;SDS011;40525;55.926;21.066;2023-07-29T07:18:40;2.50;;;1.20;;
54627;SDS011;40525;55.926;21.066;2023-07-29T07:21:13;1.90;;;1.40;;
54627;SDS011;40525;55.926;21.066;2023-07-29T07:24:00;2.30;;;1.40;;
54627;SDS011;40525;55.926;21.066;2023-07-29T07:26:33;2.80;;;1.30;;
54627;SDS011;40525;55.926;21.066;2023-07-29T07:29:21;2.80;;;1.30;;
54627;SDS011;40525;55.926;21.066;2023-07-29T07:31:55;1.50;;;1.20;;
54627;SDS011;40525;55.926;21.066;2023-07-29T07:34:43;2.10;;;1.50;;
54627;SDS011;40525;55.926;21.066;2023-07-29T07:37:37;1.90;;;1.30;;
54627;SDS011;40525;55.926;21.066;2023-07-29T07:40:32;3.20;;;1.60;;
54627;SDS011;40525;55.926;21.066;2023-07-29T07:43:05;3.70;;;1.40;;
54627;SDS011;40525;55.926;21.066;2023-07-29T07:46:02;4.70;;;1.70;;
54627;SDS011;40525;55.926;21.066;2023-07-29T07:48:37;4.00;;;2.00;;
54627;SDS011;40525;55.926;21.066;2023-07-29T07:51:25;2.40;;;1.60;;
54627;SDS011;40525;55.926;21.066;2023-07-29T07:53:58;3.10;;;1.70;;
54627;SDS011;40525;55.926;21.066;2023-07-29T07:56:45;3.50;;;2.10;;
54627;SDS011;40525;55.926;21.066;2023-07-29T07:59:18;4.20;;;1.50;;
54627;SDS011;40525;55.926;21.066;2023-07-29T08:02:06;3.70;;;1.80;;
54627;SDS011;40525;55.926;21.066;2023-07-29T08:04:39;2.90;;;1.50;;
54627;SDS011;40525;55.926;21.066;2023-07-29T08:07:26;2.40;;;1.30;;
54627;SDS011;40525;55.926;21.066;2023-07-29T08:10:06;3.20;;;1.70;;
54627;SDS011;40525;55.926;21.066;2023-07-29T08:12:47;2.90;;;1.90;;
54627;SDS011;40525;55.926;21.066;2023-07-29T08:15:27;4.50;;;1.90;;
54627;SDS011;40525;55.926;21.066;2023-07-29T08:18:07;2.90;;;1.60;;
54627;SDS011;40525;55.926;21.066;2023-07-29T08:20:57;2.30;;;1.70;;
54627;SDS011;40525;55.926;21.066;2023-07-29T08:23:39;3.80;;;1.50;;
54627;SDS011;40525;55.926;21.066;2023-07-29T08:26:19;3.00;;;1.50;;
54627;SDS011;40525;55.926;21.066;2023-07-29T08:28:59;4.30;;;1.90;;
54627;SDS011;40525;55.926;21.066;2023-07-29T08:31:39;2.40;;;1.50;;
54627;SDS011;40525;55.926;21.066;2023-07-29T08:34:18;2.30;;;1.50;;
54627;SDS011;40525;55.926;21.066;2023-07-29T08:36:59;2.60;;;1.60;;
54627;SDS011;40525;55.926;21.066;2023-07-29T08:39:39;4.10;;;2.10;;
54627;SDS011;40525;55.926;21.066;2023-07-29T08:42:19;2.90;;;1.60;;
54627;SDS011;40525;55.926;21.066;2023-07-29T08:45:06;1.90;;;1.60;;
54627;SDS011;40525;55.926;21.066;2023-07-29T08:47:52;3.20;;;1.80;;
54627;SDS011;40525;55.926;21.066;2023-07-29T08:50:37;4.00;;;1.90;;
54627;SDS011;40525;55.926;21.066;2023-07-29T08:53:17;2.50;;;1.40;;
54627;SDS011;40525;55.926;21.066;2023-07-29T08:55:56;3.60;;;1.60;;
54627;SDS011;40525;55.926;21.066;2023-07-29T08:58:38;3.20;;;1.50;;
54627;SDS011;40525;55.926;21.066;2023-07-29T09:01:18;3.10;;;2.40;;
54627;SDS011;40525;55.926;21.066;2023-07-29T09:04:05;3.40;;;2.10;;
54627;SDS011;40525;55.926;21.066;2023-07-29T09:06:59;2.80;;;1.70;;
54627;SDS011;40525;55.926;21.066;2023-07-29T09:09:33;3.80;;;1.50;;
54627;SDS011;40525;55.926;21.066;2023-07-29T09:12:19;3.00;;;1.60;;
54627;SDS011;40525;55.926;21.066;2023-07-29T09:15:00;2.00;;;1.50;;
54627;SDS011;40525;55.926;21.066;2023-07-29T09:17:40;3.00;;;1.60;;
54627;SDS011;40525;55.926;21.066;2023-07-29T09:20:24;3.20;;;1.70;;
54627;SDS011;40525;55.926;21.066;2023-07-29T09:23:09;2.60;;;1.60;;
54627;SDS011;40525;55.926;21.066;2023-07-29T09:25:50;4.20;;;2.10;;
54627;SDS011;40525;55.926;21.066;2023-07-29T09:28:33;5.80;;;2.00;;
54627;SDS011;40525;55.926;21.066;2023-07-29T09:31:19;2.80;;;1.70;;
54627;SDS011;40525;55.926;21.066;2023-07-29T09:34:04;3.20;;;1.80;;
54627;SDS011;40525;55.926;21.066;2023-07-29T09:36:45;3.90;;;1.90;;
54627;SDS011;40525;55.926;21.066;2023-07-29T09:39:24;2.10;;;1.60;;
54627;SDS011;40525;55.926;21.066;2023-07-29T09:42:05;2.00;;;1.50;;
54627;SDS011;40525;55.926;21.066;2023-07-29T09:44:44;2.60;;;1.90;;
54627;SDS011;40525;55.926;21.066;2023-07-29T09:47:25;4.00;;;2.10;;
54627;SDS011;40525;55.926;21.066;2023-07-29T09:50:06;2.90;;;1.50;;
54627;SDS011;40525;55.926;21.066;2023-07-29T09:52:49;4.50;;;2.30;;
54627;SDS011;40525;55.926;21.066;2023-07-29T09:55:33;2.60;;;1.80;;
54627;SDS011;40525;55.926;21.066;2023-07-29T09:58:15;3.50;;;1.70;;
54627;SDS011;40525;55.926;21.066;2023-07-29T10:01:08;2.40;;;2.10;;
54627;SDS011;40525;55.926;21.066;2023-07-29T10:03:56;2.90;;;2.00;;
54627;SDS011;40525;55.926;21.066;2023-07-29T10:06:52;2.70;;;1.70;;
54627;SDS011;40525;55.926;21.066;2023-07-29T10:09:26;3.40;;;2.10;;
54627;SDS011;40525;55.926;21.066;2023-07-29T10:12:14;4.60;;;2.20;;
54627;SDS011;40525;55.926;21.066;2023-07-29T10:14:49;3.60;;;1.60;;
54627;SDS011;40525;55.926;21.066;2023-07-29T10:17:37;4.50;;;1.80;;
54627;SDS011;40525;55.926;21.066;2023-07-29T10:20:17;3.40;;;1.90;;
54627;SDS011;40525;55.926;21.066;2023-07-29T10:23:05;3.60;;;2.00;;
54627;SDS011;40525;55.926;21.066;2023-07-29T10:25:43;4.20;;;1.90;;
54627;SDS011;40525;55.926;21.066;2023-07-29T10:28:38;2.90;;;1.90;;
54627;SDS011;40525;55.926;21.066;2023-07-29T10:31:16;4.20;;;2.20;;
54627;SDS011;40525;55.926;21.066;2023-07-29T10:34:03;4.30;;;1.50;;
54627;SDS011;40525;55.926;21.066;2023-07-29T10:36:38;3.40;;;1.80;;
54627;SDS011;40525;55.926;21.066;2023-07-29T10:39:27;2.70;;;1.70;;
54627;SDS011;40525;55.926;21.066;2023-07-29T10:42:11;3.00;;;1.50;;
54627;SDS011;40525;55.926;21.066;2023-07-29T10:44:58;2.10;;;1.70;;
54627;SDS011;40525;55.926;21.066;2023-07-29T10:47:32;2.20;;;1.50;;
54627;SDS011;40525;55.926;21.066;2023-07-29T10:50:19;2.40;;;1.40;;
54627;SDS011;40525;55.926;21.066;2023-07-29T10:52:54;2.00;;;1.30;;
54627;SDS011;40525;55.926;21.066;2023-07-29T10:55:43;2.50;;;1.50;;
54627;SDS011;40525;55.926;21.066;2023-07-29T10:58:17;2.10;;;1.40;;
54627;SDS011;40525;55.926;21.066;2023-07-29T11:01:12;3.40;;;1.60;;
54627;SDS011;40525;55.926;21.066;2023-07-29T11:04:00;2.60;;;1.70;;
54627;SDS011;40525;55.926;21.066;2023-07-29T11:15:25;3.90;;;1.90;;
54627;SDS011;40525;55.926;21.066;2023-07-29T11:18:13;5.60;;;1.80;;
54627;SDS011;40525;55.926;21.066;2023-07-29T11:20:55;2.70;;;1.40;;
54627;SDS011;40525;55.926;21.066;2023-07-29T11:23:36;2.30;;;1.40;;
54627;SDS011;40525;55.926;21.066;2023-07-29T11:26:16;3.00;;;1.50;;
54627;SDS011;40525;55.926;21.066;2023-07-29T11:28:56;1.80;;;1.30;;
54627;SDS011;40525;55.926;21.066;2023-07-29T11:31:40;2.10;;;1.40;;
54627;SDS011;40525;55.926;21.066;2023-07-29T11:34:30;2.00;;;1.20;;
54627;SDS011;40525;55.926;21.066;2023-07-29T11:37:13;2.00;;;1.30;;
54627;SDS011;40525;55.926;21.066;2023-07-29T11:39:54;1.80;;;1.50;;
54627;SDS011;40525;55.926;21.066;2023-07-29T11:42:34;1.60;;;1.20;;
54627;SDS011;40525;55.926;21.066;2023-07-29T11:45:14;3.00;;;1.40;;
54627;SDS011;40525;55.926;21.066;2023-07-29T11:47:57;2.80;;;1.70;;
54627;SDS011;40525;55.926;21.066;2023-07-29T11:50:37;2.00;;;1.40;;
54627;SDS011;40525;55.926;21.066;2023-07-29T11:53:17;3.80;;;1.90;;
54627;SDS011;40525;55.926;21.066;2023-07-29T11:55:58;2.50;;;1.60;;
54627;SDS011;40525;55.926;21.066;2023-07-29T11:58:38;2.00;;;1.70;;
54627;SDS011;40525;55.926;21.066;2023-07-29T12:01:18;1.70;;;1.40;;
54627;SDS011;40525;55.926;21.066;2023-07-29T12:04:05;1.90;;;1.20;;
54627;SDS011;40525;55.926;21.066;2023-07-29T12:06:59;2.00;;;1.30;;
54627;SDS011;40525;55.926;21.066;2023-07-29T12:09:34;1.90;;;1.00;;
54627;SDS011;40525;55.926;21.066;2023-07-29T12:12:22;1.70;;;1.20;;
54627;SDS011;40525;55.926;21.066;2023-07-29T12:14:56;2.30;;;1.10;;
54627;SDS011;40525;55.926;21.066;2023-07-29T12:17:43;3.50;;;2.00;;
54627;SDS011;40525;55.926;21.066;2023-07-29T12:20:17;1.50;;;1.00;;
54627;SDS011;40525;55.926;21.066;2023-07-29T12:23:06;5.90;;;4.00;;
54627;SDS011;40525;55.926;21.066;2023-07-29T12:25:47;2.90;;;1.90;;
54627;SDS011;40525;55.926;21.066;2023-07-29T12:28:27;2.50;;;1.60;;
54627;SDS011;40525;55.926;21.066;2023-07-29T12:31:08;3.80;;;1.80;;
54627;SDS011;40525;55.926;21.066;2023-07-29T12:33:48;1.60;;;1.00;;
54627;SDS011;40525;55.926;21.066;2023-07-29T12:39:30;3.30;;;2.00;;
54627;SDS011;40525;55.926;21.066;2023-07-29T12:42:12;2.70;;;1.40;;
54627;SDS011;40525;55.926;21.066;2023-07-29T12:44:52;2.00;;;1.30;;
54627;SDS011;40525;55.926;21.066;2023-07-29T12:47:32;2.80;;;1.70;;
54627;SDS011;40525;55.926;21.066;2023-07-29T12:50:12;2.40;;;1.50;;
54627;SDS011;40525;55.926;21.066;2023-07-29T12:52:52;1.80;;;1.40;;
54627;SDS011;40525;55.926;21.066;2023-07-29T12:55:32;1.50;;;1.10;;
54627;SDS011;40525;55.926;21.066;2023-07-29T12:58:12;2.10;;;1.40;;
54627;SDS011;40525;55.926;21.066;2023-07-29T13:00:52;2.00;;;1.20;;
54627;SDS011;40525;55.926;21.066;2023-07-29T13:03:41;3.10;;;1.60;;
54627;SDS011;40525;55.926;21.066;2023-07-29T13:06:35;2.60;;;1.90;;
54627;SDS011;40525;55.926;21.066;2023-07-29T13:09:08;1.80;;;1.10;;
54627;SDS011;40525;55.926;21.066;2023-07-29T13:11:55;2.60;;;1.20;;
54627;SDS011;40525;55.926;21.066;2023-07-29T13:14:29;2.30;;;1.40;;
54627;SDS011;40525;55.926;21.066;2023-07-29T13:17:15;2.10;;;1.20;;
54627;SDS011;40525;55.926;21.066;2023-07-29T13:19:49;1.90;;;1.30;;
54627;SDS011;40525;55.926;21.066;2023-07-29T13:22:36;2.40;;;1.30;;
54627;SDS011;40525;55.926;21.066;2023-07-29T13:25:10;1.90;;;1.10;;
54627;SDS011;40525;55.926;21.066;2023-07-29T13:27:57;2.20;;;1.10;;
54627;SDS011;40525;55.926;21.066;2023-07-29T13:30:37;2.40;;;1.20;;
54627;SDS011;40525;55.926;21.066;2023-07-29T13:33:17;1.70;;;1.20;;
54627;SDS011;40525;55.926;21.066;2023-07-29T13:35:57;2.10;;;0.90;;
54627;SDS011;40525;55.926;21.066;2023-07-29T13:38:37;2.50;;;1.30;;
54627;SDS011;40525;55.926;21.066;2023-07-29T13:41:17;3.10;;;1.20;;
54627;SDS011;40525;55.926;21.066;2023-07-29T13:43:57;4.90;;;1.20;;
54627;SDS011;40525;55.926;21.066;2023-07-29T13:46:37;2.90;;;1.20;;
54627;SDS011;40525;55.926;21.066;2023-07-29T13:49:17;2.00;;;1.30;;
54627;SDS011;40525;55.926;21.066;2023-07-29T13:51:57;2.30;;;1.20;;
54627;SDS011;40525;55.926;21.066;2023-07-29T13:54:37;3.10;;;1.30;;
54627;SDS011;40525;55.926;21.066;2023-07-29T13:57:18;1.30;;;1.10;;
54627;SDS011;40525;55.926;21.066;2023-07-29T13:59:58;3.20;;;1.10;;
54627;SDS011;40525;55.926;21.066;2023-07-29T14:02:38;2.00;;;1.00;;
54627;SDS011;40525;55.926;21.066;2023-07-29T14:05:18;1.80;;;1.20;;
54627;SDS011;40525;55.926;21.066;2023-07-29T14:07:58;2.00;;;1.20;;
54627;SDS011;40525;55.926;21.066;2023-07-29T14:10:38;2.10;;;1.50;;
54627;SDS011;40525;55.926;21.066;2023-07-29T14:13:18;1.90;;;1.40;;
54627;SDS011;40525;55.926;21.066;2023-07-29T14:16:00;2.00;;;1.20;;
54627;SDS011;40525;55.926;21.066;2023-07-29T14:18:42;2.40;;;1.30;;
54627;SDS011;40525;55.926;21.066;2023-07-29T14:21:22;2.40;;;1.40;;
54627;SDS011;40525;55.926;21.066;2023-07-29T14:24:02;3.00;;;1.40;;
54627;SDS011;40525;55.926;21.066;2023-07-29T14:26:42;2.30;;;1.20;;
54627;SDS011;40525;55.926;21.066;2023-07-29T14:29:22;2.70;;;1.40;;
54627;SDS011;40525;55.926;21.066;2023-07-29T14:32:02;1.30;;;1.00;;
54627;SDS011;40525;55.926;21.066;2023-07-29T14:34:45;2.00;;;1.20;;
54627;SDS011;40525;55.926;21.066;2023-07-29T14:37:25;1.30;;;1.00;;
54627;SDS011;40525;55.926;21.066;2023-07-29T14:40:05;1.90;;;1.10;;
54627;SDS011;40525;55.926;21.066;2023-07-29T14:42:46;2.40;;;1.10;;
54627;SDS011;40525;55.926;21.066;2023-07-29T14:45:26;2.10;;;0.90;;
54627;SDS011;40525;55.926;21.066;2023-07-29T14:48:06;1.60;;;1.20;;
54627;SDS011;40525;55.926;21.066;2023-07-29T14:50:46;1.00;;;0.80;;
54627;SDS011;40525;55.926;21.066;2023-07-29T14:53:26;1.70;;;1.10;;
54627;SDS011;40525;55.926;21.066;2023-07-29T14:56:06;1.40;;;1.00;;
54627;SDS011;40525;55.926;21.066;2023-07-29T14:58:48;1.20;;;1.00;;
54627;SDS011;40525;55.926;21.066;2023-07-29T15:01:30;1.70;;;0.90;;
54627;SDS011;40525;55.926;21.066;2023-07-29T15:04:12;1.30;;;0.90;;
54627;SDS011;40525;55.926;21.066;2023-07-29T15:06:52;1.50;;;1.10;;
54627;SDS011;40525;55.926;21.066;2023-07-29T15:09:34;1.50;;;1.10;;
54627;SDS011;40525;55.926;21.066;2023-07-29T15:12:14;2.30;;;1.20;;
54627;SDS011;40525;55.926;21.066;2023-07-29T15:14:56;2.10;;;1.30;;
54627;SDS011;40525;55.926;21.066;2023-07-29T15:17:36;1.70;;;1.00;;
54627;SDS011;40525;55.926;21.066;2023-07-29T15:20:17;1.40;;;0.90;;
54627;SDS011;40525;55.926;21.066;2023-07-29T15:22:57;1.40;;;1.20;;
54627;SDS011;40525;55.926;21.066;2023-07-29T15:25:37;2.20;;;1.00;;
54627;SDS011;40525;55.926;21.066;2023-07-29T15:28:19;2.10;;;1.20;;
54627;SDS011;40525;55.926;21.066;2023-07-29T15:30:59;1.40;;;1.10;;
54627;SDS011;40525;55.926;21.066;2023-07-29T15:33:39;2.00;;;1.00;;
54627;SDS011;40525;55.926;21.066;2023-07-29T15:36:20;1.50;;;1.00;;
54627;SDS011;40525;55.926;21.066;2023-07-29T15:39:00;2.00;;;0.90;;
54627;SDS011;40525;55.926;21.066;2023-07-29T15:41:41;2.20;;;1.00;;
54627;SDS011;40525;55.926;21.066;2023-07-29T15:44:21;2.10;;;1.30;;
54627;SDS011;40525;55.926;21.066;2023-07-29T15:47:01;1.60;;;1.10;;
54627;SDS011;40525;55.926;21.066;2023-07-29T15:49:41;2.00;;;1.00;;
54627;SDS011;40525;55.926;21.066;2023-07-29T15:52:21;1.40;;;1.00;;
54627;SDS011;40525;55.926;21.066;2023-07-29T15:55:01;2.30;;;1.30;;
54627;SDS011;40525;55.926;21.066;2023-07-29T15:57:41;1.60;;;1.00;;
54627;SDS011;40525;55.926;21.066;2023-07-29T16:00:21;1.60;;;1.30;;
54627;SDS011;40525;55.926;21.066;2023-07-29T16:03:01;1.80;;;1.30;;
54627;SDS011;40525;55.926;21.066;2023-07-29T16:05:49;2.60;;;1.30;;
54627;SDS011;40525;55.926;21.066;2023-07-29T16:08:43;2.30;;;1.20;;
54627;SDS011;40525;55.926;21.066;2023-07-29T16:11:23;1.80;;;1.30;;
54627;SDS011;40525;55.926;21.066;2023-07-29T16:14:02;2.00;;;1.40;;
54627;SDS011;40525;55.926;21.066;2023-07-29T16:16:43;2.10;;;1.40;;
54627;SDS011;40525;55.926;21.066;2023-07-29T16:19:23;2.50;;;1.50;;
54627;SDS011;40525;55.926;21.066;2023-07-29T16:22:05;2.50;;;1.40;;